Isaac Baba

Chefscout - Inter Allies
25 Nov 2027
Donnerstag
Verarbeitung

Persönlichkeit

Anpassungsfähigkeit (9) Ehrgeiz (7) Kontroverse (1) Loyalität (9) Druck (9) Professionalität (9) Fairness (10) Temperament (12)

Profil

Trainerstil Demokratisch
Lizenz Nationale A
Entschlossenheit 4
Menschenführung 3
Motivation 3
Disziplin 2
Arbeitszufriedenheit
100%
Ermüdung
0%
Rolle Chefscout
Gehalt 41.9K p/W
Vertrag 14.03.2030

Leistung

Verhalten Gut
Trainingseffektivität
26%
Spielerentwicklung
35%
Verletzungsprävention
35%
Taktische Umsetzung
30%

Letzte Ereignisse

Nahm an einer Scouting-Besprechung teil 7T her
Nahm an einer Scouting-Besprechung teil 7T her
Nahm an einer Scouting-Besprechung teil 14T her
Nahm an einer Scouting-Besprechung teil 14T her
Nahm an einer Scouting-Besprechung teil 21T her
Nahm an einer Scouting-Besprechung teil 21T her
Nahm an einer Scouting-Besprechung teil 28T her
Nahm an einer Scouting-Besprechung teil 28T her

Aktuell beobachtet

107
Spieler Verein Status Fähigkeit Vertrauen Beobachtet Zuletzt beobachtet Letzte Stimme
Gladson Essien BA All Stars Aktiv 60 / 68 58% 1 30.08.2027 -
Sam Nombe Milton Keynes Dons Aktiv 112 / 124 40% 2 05.07.2027 -
Simone Mazzocchi Cosenza Aktiv 113 / 124 40% 5 05.07.2027 -
Louis Appéré Cambridge United Aktiv 111 / 84 40% 2 21.06.2027 -
Kelvin Obeng Medeama Aktiv 90 / 93 40% 2 21.06.2027 -
Lorenzo Di Stefano Torres Aktiv 97 / 99 40% 5 14.06.2027 -
Emanuele Schimmenti Potenza Aktiv 106 / 97 40% 1 30.05.2027 -
Ekain Orobengoa Real Sociedad Aktiv 118 / 114 40% 5 29.05.2027 -
Yaw Mensah Hasaacas Aktiv 95 / 94 40% 5 29.05.2027 -
Lamine Diakité Djoliba Aktiv 102 / 104 40% 1 27.05.2027 -
Yeangel Montero Naxxar Lions Verhandlung 119 / 111 40% 7 26.05.2027 -
Lungelo Nguse AS Bakaridjan Aktiv 78 / 88 40% 2 26.05.2027 -
Gladson Paintsil Wa All Stars Aktiv 88 / 98 40% 4 24.05.2027 -
Jonathan Gyan Liberty Professionals Aktiv 88 / 97 40% 4 23.05.2027 -
Lorenzo De Leo Renate Aktiv 104 / 110 40% 2 22.05.2027 -
Justice Figuareido Chippa United Aktiv 105 / 83 40% 4 20.05.2027 -
Bruno Gomes Valletta Aktiv 110 / 111 40% 3 20.05.2027 -
Godbless Ayeke AS Korofina Aktiv 72 / 80 40% 2 18.05.2027 -
John Yeboah Venezia Aktiv 134 / 118 40% 1 18.05.2027 -
Dany Mota Monza Aktiv 128 / 122 40% 2 17.05.2027 -
Silvio Merkaj Vicenza Aktiv 122 / 108 40% 2 14.05.2027 -
Jere Vrcić Birkirkara Aktiv 104 / 95 40% 4 12.05.2027 -
Robert Mizo Ashanti Gold Aktiv 101 / 113 40% 6 11.05.2027 -
Suleiman Mojereola FC Diarra Aktiv 69 / 74 40% 4 09.05.2027 -
Job Ochieng Real Sociedad Aktiv 124 / 95 40% 4 06.05.2027 -
Marco Tumminello Benevento Aktiv 124 / 102 40% 1 06.05.2027 -
Robert Murić Floriana Aktiv 116 / 97 40% 1 04.05.2027 -
Manuele Malotti Livorno Aktiv 94 / 89 40% 1 01.05.2027 -
Lwanda Mbanjwa Maritzburg United Aktiv 82 / 88 40% 2 30.04.2027 -
Franklin Sasere Birkirkara Aktiv 98 / 85 40% 7 26.04.2027 -
Isaac Essien WAFA Aktiv 104 / 94 40% 7 26.04.2027 -
Diamanka Senghor Mosta Aktiv 91 / 76 40% 6 25.04.2027 -
Alessio Nepi Perugia Aktiv 91 / 101 40% 2 25.04.2027 -
Shayne Lavery Cambridge United Aktiv 120 / 97 40% 3 23.04.2027 -
Luca Fabrizi Pianese Aktiv 88 / 104 40% 1 23.04.2027 -
Camillo Tavernelli Arezzo Aktiv 99 / 113 40% 1 21.04.2027 -
Marcelo Sliema Wanderers Aktiv 100 / 80 40% 2 20.04.2027 -
Thomas Agyepong Great Olympics Aktiv 87 / 103 40% 1 19.04.2027 -
Thomas Waddingham Portsmouth Aktiv 103 / 123 40% 1 18.04.2027 -
Yusuff Adewale Afrique Foot Elite Aktiv 69 / 90 40% 3 09.04.2027 -
Dean Erasmus Platinum Stars Aktiv 81 / 83 40% 3 08.04.2027 -
Gabriel Costa Naxxar Lions Aktiv 87 / 59 40% 1 03.04.2027 -
Mohammed Yahaya Great Olympics Aktiv 88 / 85 40% 1 03.04.2027 -
Bismark Asante Ashanti Gold Aktiv 103 / 83 40% 2 31.03.2027 -
Kwadwo Obeng Junior Heart of Lions Aktiv 100 / 74 40% 3 29.03.2027 -
Selasie Bakai US Forces Armees Aktiv 92 / 85 40% 1 28.03.2027 -
Kenan Dervišagić Floriana Aktiv 97 / 88 40% 5 25.03.2027 -
Sibusiso Tshabalala Polokwane City Aktiv 95 / 90 40% 3 24.03.2027 -
Ayom Majok Zabbar St. Patrick Aktiv 100 / 77 40% 4 20.03.2027 -
Sanele Sikhosana US Bougouni Aktiv 71 / 77 40% 1 18.03.2027 -
André Gzira United Aktiv 57 / 90 40% 1 16.03.2027 -
Aaron Drinan Swindon Town Aktiv 90 / 89 40% 1 15.03.2027 -
Jonah James Mosta Aktiv 72 / 81 40% 3 02.03.2027 -
Fortune Bassey Djoliba Aktiv 105 / 96 40% 2 01.03.2027 -
Kwame Opoku Asante Kotoko Aktiv 94 / 95 40% 3 01.02.2027 -
Samuel Tetteh Ashanti Gold Aktiv 111 / 100 40% 1 25.01.2027 -
Kyle Joseph Middlesbrough Aktiv 102 / 123 40% 2 29.12.2026 -
Oto John ES Mostaganem Aktiv 107 / 100 40% 2 29.12.2026 -
Francis Kahiro KCB Aktiv 76 / 96 40% 1 28.12.2026 -
Macaulay Langstaff Millwall Aktiv 104 / 125 40% 2 27.12.2026 -
Yago Santiago Racing Santander Aktiv 113 / 111 40% 2 26.12.2026 -
Hassan Beja AFC Leopards Aktiv 96 / 78 40% 1 25.12.2026 -
Andre Green AVS Aktiv 97 / 119 40% 1 22.12.2026 -
Samuel Ayanrinde Kenya Police Aktiv 82 / 96 40% 1 19.12.2026 -
Marcos Leonardo Ajax Aktiv 132 / 142 40% 1 18.12.2026 -
Samuel Ssenyonjo AFC Leopards Aktiv 64 / 80 40% 3 13.12.2026 -
Jovon Makama Norwich City Aktiv 107 / 131 40% 1 08.12.2026 -
Peter Thiong'o Kakamega Homeboyz Aktiv 96 / 81 40% 1 06.12.2026 -
Risen Albert University of Pretoria Aktiv 76 / 96 40% 1 04.12.2026 -
Paul Mbong Floriana Aktiv 115 / 108 40% 2 02.12.2026 -
Damir Céter Hamrun Spartans Aktiv 104 / 99 40% 3 29.11.2026 -
Williams Furman Black Aces Aktiv 64 / 69 40% 1 25.11.2026 -
Keagan Zungu Ajax Cape Town Aktiv 101 / 106 40% 1 22.11.2026 -
Tyreece Simpson Maritzburg United Aktiv 83 / 98 40% 1 13.11.2026 -
Josh Woods Accrington Stanley Aktiv 77 / 101 40% 2 12.11.2026 -
Makabi Lilepo Kaizer Chiefs Aktiv 107 / 121 40% 2 08.11.2026 -
James Kinyanjui AFC Leopards Aktiv 102 / 84 40% 1 06.11.2026 -
Lewis McCann Fleetwood Town Aktiv 87 / 98 40% 3 05.11.2026 -
Tyshick Mosengo Kenya Police Aktiv 70 / 86 40% 1 05.11.2026 -
David Kalokoh Ajax Aktiv 129 / 133 40% 1 31.10.2026 -
Jaze Kabia Grimsby Town Aktiv 84 / 103 40% 2 24.10.2026 -
David Sakwa Bandari Aktiv 96 / 83 40% 1 23.10.2026 -
Nyamawi Beja Bandari Aktiv 85 / 88 40% 2 19.10.2026 -
Joseph Mwangi Kariobangi Sharks Aktiv 98 / 74 40% 1 18.10.2026 -
Augustine Nwaorisa Enyimba Aktiv 90 / 83 40% 1 17.10.2026 -
Luís Mota Zabbar St. Patrick Aktiv 76 / 99 40% 2 11.10.2026 -
Fletcher Holman Swindon Town Aktiv 83 / 84 40% 1 10.10.2026 -
Mas´ud Danjuma USM Khenchela Aktiv 83 / 80 40% 2 07.10.2026 -
Alfred Emoni Bandari Aktiv 69 / 94 40% 1 05.10.2026 -
Philani Khumalo Golden Arrows Aktiv 69 / 95 40% 1 01.10.2026 -
Benard Mundi Stade Malien Aktiv 86 / 102 40% 1 30.09.2026 -
Florian Bianchini Swansea City Aktiv 108 / 100 40% 1 29.09.2026 -
Lee Bonis Chesterfield Aktiv 93 / 83 40% 3 28.09.2026 -
Alassana Jatta Notts County Aktiv 99 / 88 40% 2 18.09.2026 -
Auwalu Ali Malam Kano Pillars Aktiv 101 / 80 40% 1 12.09.2026 -
Patrick Otieno KCB Aktiv 65 / 81 40% 1 11.09.2026 -
Klaidi Lolos Peterborough United Aktiv 75 / 92 40% 1 11.09.2026 -
Umar Ada Nasarawa United Aktiv 82 / 103 40% 1 10.09.2026 -
Shuaibu Ibrahim Wikki Tourists Aktiv 99 / 98 40% 1 09.09.2026 -
James Emo Rangers International Aktiv 80 / 98 40% 1 07.09.2026 -
Sadeeq Abubakar Wikki Tourists Aktiv 84 / 73 40% 1 01.09.2026 -
Eliud Lokuwam Posta Rangers Aktiv 70 / 87 40% 1 24.08.2026 -
Will Davies Fleetwood Town Aktiv 72 / 90 40% 1 24.08.2026 -
Abubakar Adams Aduana Stars Aktiv 59 / 71 48% 1 17.08.2026 -
Kofi Asmah Medeama Verhandlung 75 / 65 48% 1 03.08.2026 Beobachten
Joe Gelhardt Hull City Aktiv 139 / 134 40% 1 01.08.2026 -
Jacques Ekomié Wrexham Aktiv 120 / 116 40% 1 01.08.2026 -